Ville De Bordeaux — FZCE — position and weather

sailwx.info

Track history (hours):
 
Tides and Currents Weather Stations Pressure Air Temp Water Temp Dewpoint Dewpoint Depression Visibility Wind Speed Wind Dir Waves Ship Positions

Ville De Bordeaux

Last reported at 2015-Feb-27 18:31 UTC. Time now 2015-Feb-28 12:30 UTC.
Position N 38°46' E 008°50'.

Length 150 m; beam 24 m.

Type: Ship. MMSI: 228084000.

Date/timePositionNaut miles runAvg speedWind from/ knotsBaromVisibWave heightAir tempDewpointWater temp
2015-Feb-27 18:31N 38°46' E 008°50'1917.9
2015-Feb-27 17:26N 38°53' E 009°13'23018.8
2015-Feb-27 05:12N 40°34' E 013°41'1320.1
2015-Feb-27 04:33N 40°40' E 013°57'18 2.6
2015-Feb-26 21:33N 40°50' E 014°16'8 8.2
2015-Feb-26 20:34N 40°45' E 014°08'1110.7
2015-Feb-26 19:33N 40°39' E 013°56'1914.7
2015-Feb-26 18:14N 40°31' E 013°33'21114.1
2015-Feb-26 03:14N 38°57' E 009°27'1115.7
2015-Feb-26 02:33N 38°53' E 009°14'1515.3
2015-Feb-26 01:33N 38°48' E 008°56'3415.0
2015-Feb-25 23:19N 38°38' E 008°15'66013.4
2015-Feb-23 22:13N 35°59' W 005°10'1319.9
2015-Feb-23 21:33N 35°57' W 005°26'24612.1
2015-Feb-23 01:09N 37°60' W 009°54'2915.8
2015-Feb-22 23:20N 38°28' W 010°02'  
Track history (hours):
 
Tides and Currents Weather Stations Pressure Air Temp Water Temp Dewpoint Dewpoint Depression Visibility Wind Speed Wind Dir Waves Ship Positions

Ville De Bordeaux

Last reported at 2015-Feb-27 18:31 UTC. Time now 2015-Feb-28 12:30 UTC.
Position N 38°46' E 008°50'.

Length 150 m; beam 24 m.

Type: Ship. MMSI: 228084000.

Date/timePositionNaut miles runAvg speedWind from/ knotsBaromVisibWave heightAir tempDewpointWater temp
2015-Feb-27 18:31N 38°46' E 008°50'1917.9
2015-Feb-27 17:26N 38°53' E 009°13'23018.8
2015-Feb-27 05:12N 40°34' E 013°41'1320.1
2015-Feb-27 04:33N 40°40' E 013°57'18 2.6
2015-Feb-26 21:33N 40°50' E 014°16'8 8.2
2015-Feb-26 20:34N 40°45' E 014°08'1110.7
2015-Feb-26 19:33N 40°39' E 013°56'1914.7
2015-Feb-26 18:14N 40°31' E 013°33'21114.1
2015-Feb-26 03:14N 38°57' E 009°27'1115.7
2015-Feb-26 02:33N 38°53' E 009°14'1515.3
2015-Feb-26 01:33N 38°48' E 008°56'3415.0
2015-Feb-25 23:19N 38°38' E 008°15'66013.4
2015-Feb-23 22:13N 35°59' W 005°10'1319.9
2015-Feb-23 21:33N 35°57' W 005°26'24612.1
2015-Feb-23 01:09N 37°60' W 009°54'2915.8
2015-Feb-22 23:20N 38°28' W 010°02'  

Dump ship's entire track history